createdAt,value
2022-11-17T00:27:40.613Z,84.61
2022-11-17T02:03:44.636Z,83.69
2022-11-17T02:15:06.134Z,83.03
2022-11-17T03:43:27.319Z,83.12
2022-11-17T04:01:59.905Z,83.12
2022-11-17T04:21:59.505Z,83.89
2022-11-17T04:55:24.225Z,83.94
2022-11-17T06:23:06.405Z,86.03
2022-11-17T06:34:28.736Z,86.03
2022-11-17T06:54:23.478Z,85.05
2022-11-17T06:56:52.532Z,84.40
2022-11-17T06:59:19.993Z,84.54
2022-11-17T07:01:47.601Z,84.95
2022-11-17T07:04:15.202Z,84.74
2022-11-17T07:06:42.683Z,85.07
2022-11-17T07:09:10.168Z,84.81
2022-11-17T07:11:37.643Z,84.80
2022-11-17T07:14:05.125Z,84.76
2022-11-17T07:16:32.831Z,84.22
2022-11-17T07:19:03.503Z,83.81
2022-11-17T07:21:31.539Z,83.86
2022-11-17T07:23:59.167Z,83.79
2022-11-17T07:26:26.979Z,83.75
2022-11-17T07:28:54.461Z,83.96
2022-11-17T07:31:22.305Z,84.58
2022-11-17T07:33:51.463Z,84.30
2022-11-17T07:36:18.941Z,84.09
2022-11-17T07:38:46.428Z,83.38
2022-11-17T07:41:14.506Z,83.33
2022-11-17T07:43:42.117Z,83.00
2022-11-17T07:46:12.357Z,82.74
2022-11-17T07:48:40.550Z,82.86
2022-11-17T07:51:08.267Z,83.10
2022-11-17T07:53:36.355Z,83.16
2022-11-17T07:56:08.275Z,83.30
2022-11-17T07:58:36.583Z,82.75
2022-11-17T08:01:09.628Z,82.80
2022-11-17T08:03:37.527Z,82.19
2022-11-17T08:06:06.125Z,82.32
2022-11-17T08:08:34.469Z,82.73
2022-11-17T08:11:12.965Z,81.95
2022-11-17T08:13:40.931Z,82.05
2022-11-17T08:16:09.969Z,82.04
2022-11-17T08:18:37.866Z,82.17
2022-11-17T08:21:06.742Z,81.51
2022-11-17T08:23:34.573Z,81.46
2022-11-17T08:26:03.631Z,81.37
2022-11-17T08:28:31.454Z,81.36
2022-11-17T08:31:01.262Z,82.23
2022-11-17T08:33:29.075Z,81.81
2022-11-17T08:36:00.510Z,81.83
2022-11-17T08:38:31.586Z,81.50
2022-11-17T08:41:01.472Z,81.21
2022-11-17T08:43:29.313Z,81.94
2022-11-17T08:45:56.789Z,81.77
2022-11-17T08:48:24.514Z,81.39
2022-11-17T08:50:52.110Z,82.32
2022-11-17T08:53:21.029Z,82.13
2022-11-17T08:55:48.912Z,81.75
2022-11-17T08:58:17.078Z,81.46
2022-11-17T09:00:47.487Z,81.47
2022-11-17T09:03:15.629Z,81.13
2022-11-17T09:05:47.214Z,81.46
2022-11-17T09:08:45.134Z,81.45
2022-11-17T09:11:07.006Z,81.24
2022-11-17T09:13:39.397Z,81.72
2022-11-17T09:16:08.933Z,81.83
2022-11-17T09:18:38.397Z,81.44
2022-11-17T09:21:14.080Z,81.63
2022-11-17T09:23:41.570Z,82.19
2022-11-17T09:26:14.089Z,81.50
2022-11-17T09:28:42.298Z,81.94
2022-11-17T09:31:18.215Z,81.73
2022-11-17T09:33:46.131Z,81.33
2022-11-17T09:36:15.956Z,81.50
2022-11-17T09:38:43.624Z,81.95
2022-11-17T09:41:26.816Z,81.75
2022-11-17T09:44:40.420Z,81.55
2022-11-17T09:47:41.708Z,82.04
2022-11-17T09:50:20.356Z,82.32
2022-11-17T09:53:11.593Z,82.32
2022-11-17T09:55:41.828Z,81.78
2022-11-17T09:58:38.784Z,81.53
2022-11-17T10:01:09.194Z,81.68
2022-11-17T10:03:43.640Z,81.45
2022-11-17T10:06:27.433Z,81.56
2022-11-17T10:09:21.008Z,81.34
2022-11-17T10:11:53.483Z,81.04
2022-11-17T10:14:22.174Z,81.60
2022-11-17T10:16:55.168Z,81.27
2022-11-17T10:19:24.686Z,81.34
2022-11-17T10:21:56.727Z,81.24
2022-11-17T10:24:51.208Z,81.01
2022-11-17T10:27:30.218Z,81.45
2022-11-17T10:30:01.531Z,80.70
2022-11-17T10:32:31.901Z,81.20
2022-11-17T10:35:20.133Z,81.21
2022-11-17T10:38:13.419Z,80.64
2022-11-17T10:40:40.899Z,80.75
2022-11-17T10:43:14.177Z,81.21
2022-11-17T10:45:49.085Z,81.27
2022-11-17T10:48:37.184Z,81.54
2022-11-17T10:51:25.664Z,81.09
2022-11-17T10:54:17.871Z,80.67
2022-11-17T10:56:51.345Z,80.68
2022-11-17T10:59:29.035Z,80.96
2022-11-17T11:01:56.631Z,80.99
2022-11-17T11:04:37.190Z,80.75
2022-11-17T11:07:12.393Z,81.10
2022-11-17T11:10:03.957Z,80.76
2022-11-17T11:12:49.555Z,80.77
2022-11-17T11:15:20.759Z,80.64
2022-11-17T11:17:48.490Z,80.94
2022-11-17T11:20:18.008Z,81.01
2022-11-17T11:23:09.370Z,80.83
2022-11-17T11:25:42.131Z,80.65
2022-11-17T11:28:28.451Z,81.00
2022-11-17T11:31:04.947Z,81.25
2022-11-17T11:33:37.219Z,80.28
2022-11-17T11:36:21.865Z,80.39
2022-11-17T11:39:07.223Z,80.17
2022-11-17T11:42:07.553Z,80.59
2022-11-17T11:45:15.987Z,81.05
2022-11-17T11:48:06.390Z,80.63
2022-11-17T11:50:43.226Z,80.33
2022-11-17T11:53:56.911Z,80.57
2022-11-17T11:56:30.389Z,80.55
2022-11-17T11:59:07.586Z,80.26
2022-11-17T12:01:45.275Z,79.95
2022-11-17T12:04:39.160Z,79.76
2022-11-17T12:07:17.036Z,80.02
2022-11-17T12:10:11.338Z,79.99
2022-11-17T12:12:40.121Z,80.57
2022-11-17T12:15:19.842Z,81.17
2022-11-17T12:17:53.081Z,80.77
2022-11-17T12:20:38.923Z,80.64
2022-11-17T12:23:27.765Z,80.45
2022-11-17T12:25:59.825Z,80.37
2022-11-17T12:28:30.776Z,79.85
2022-11-17T14:01:33.457Z,78.63
2022-11-17T14:04:19.384Z,78.32
2022-11-17T14:06:57.067Z,78.30
2022-11-17T14:09:30.859Z,79.33
2022-11-17T14:11:58.919Z,78.66
2022-11-17T14:14:46.795Z,78.55
2022-11-17T14:17:22.197Z,78.27
2022-11-17T14:19:49.717Z,78.47
2022-11-17T14:22:23.440Z,78.07
2022-11-17T14:24:53.406Z,78.83
2022-11-17T14:27:29.887Z,78.44
2022-11-17T14:29:57.502Z,77.92
2022-11-17T14:32:24.965Z,77.95
2022-11-17T14:34:52.452Z,78.28
2022-11-17T14:37:20.769Z,78.07
2022-11-17T14:39:48.373Z,79.00
2022-11-17T14:42:15.857Z,78.51
2022-11-17T14:44:44.298Z,78.67
2022-11-17T14:47:11.915Z,78.74
2022-11-17T14:49:39.638Z,78.55
2022-11-17T14:52:07.230Z,78.81
2022-11-17T14:54:34.580Z,78.24
2022-11-17T14:57:03.523Z,78.77
2022-11-17T14:59:31.351Z,78.78
2022-11-17T15:01:59.078Z,78.84
2022-11-17T15:04:50.988Z,78.34
2022-11-17T15:07:13.989Z,78.66
2022-11-17T15:09:41.671Z,78.34
2022-11-17T15:12:10.575Z,78.26
2022-11-17T15:14:38.316Z,78.34
2022-11-17T15:17:09.829Z,78.44
2022-11-17T15:19:40.744Z,78.98
2022-11-17T15:22:08.574Z,78.84
2022-11-17T15:24:36.067Z,78.27
2022-11-17T15:27:03.768Z,79.17
2022-11-17T15:29:33.289Z,78.76
2022-11-17T15:32:00.891Z,78.75
2022-11-17T15:34:28.366Z,79.39
2022-11-17T15:36:55.983Z,78.53
2022-11-17T15:39:23.510Z,79.22
2022-11-17T15:41:52.133Z,79.02
2022-11-17T15:44:19.986Z,79.46
2022-11-17T15:46:49.020Z,79.03
2022-11-17T15:49:17.096Z,78.68
2022-11-17T15:51:44.947Z,78.93
2022-11-17T15:54:19.702Z,78.97
2022-11-17T15:56:47.940Z,78.96
2022-11-17T15:59:15.842Z,79.79
2022-11-17T16:01:44.360Z,79.48
2022-11-17T16:04:14.825Z,80.22
2022-11-17T16:06:44.510Z,79.77
2022-11-17T16:09:13.009Z,79.36
2022-11-17T16:11:41.387Z,79.31
2022-11-17T16:14:09.324Z,79.94
2022-11-17T16:16:38.357Z,80.54
2022-11-17T16:19:06.572Z,80.79
2022-11-17T16:21:34.524Z,80.75
2022-11-17T16:24:02.425Z,81.39
2022-11-17T16:26:32.123Z,81.10
2022-11-17T16:29:02.191Z,81.26
2022-11-17T16:31:32.607Z,81.77
2022-11-17T16:34:12.578Z,81.96
2022-11-17T16:36:41.729Z,82.30
2022-11-17T16:39:11.979Z,83.05
2022-11-17T16:41:41.747Z,83.57
2022-11-17T16:44:14.904Z,83.33
2022-11-17T16:46:51.601Z,83.07
2022-11-17T16:49:47.849Z,83.01
2022-11-17T16:52:18.231Z,83.59
2022-11-17T17:03:57.463Z,85.22
2022-11-17T17:06:31.446Z,85.33
2022-11-17T17:09:03.033Z,85.52
2022-11-17T17:11:32.177Z,84.79
2022-11-17T17:14:03.034Z,85.31
2022-11-17T17:16:32.516Z,84.39
2022-11-17T17:19:04.206Z,84.90
2022-11-17T17:21:34.806Z,84.98
2022-11-17T17:24:02.523Z,85.16
2022-11-17T17:26:32.040Z,85.29
2022-11-17T17:29:00.739Z,84.91
2022-11-17T17:31:34.217Z,85.11
2022-11-17T17:34:01.931Z,85.83
2022-11-17T17:36:30.016Z,86.08
2022-11-17T17:38:59.302Z,85.55
2022-11-17T18:11:33.044Z,86.19
2022-11-17T18:14:00.648Z,85.13
2022-11-17T18:16:30.871Z,85.49
2022-11-17T18:19:04.004Z,85.71
2022-11-17T18:21:32.472Z,85.19
2022-11-17T18:24:01.725Z,85.43
2022-11-17T20:00:40.894Z,87.53
